Time;durP1;ratioP1;P1;durP2;ratioP2;P2;SDS_P1;SDS_P2;PMS_P1;PMS_P2;Temp;Humidity;BMP_temperature;BMP_pressure;BME280_temperature;BME280_humidity;BME280_pressure;Samples;Min_cycle;Max_cycle;Signal;HPM_P1;HPM_P2
2023/10/24 00:02:01;;;;;;;10.07;8.10;;;;;;;13.03;94.46;99986.69;7386114;19;20348;-74
2023/10/24 00:04:28;;;;;;;12.13;9.10;;;;;;;13.04;94.44;99988.31;7393728;19;20918;-74
2023/10/24 00:06:55;;;;;;;10.98;8.30;;;;;;;13.05;94.58;99981.97;7391496;19;20377;-74
2023/10/24 00:09:22;;;;;;;9.93;7.88;;;;;;;13.06;94.62;99980.13;7386866;19;20760;-74
2023/10/24 00:11:49;;;;;;;9.90;8.57;;;;;;;13.08;94.55;99972.72;7390465;19;20336;-74
2023/10/24 00:14:16;;;;;;;10.53;8.27;;;;;;;13.07;94.65;99973.78;7391532;19;20364;-74
2023/10/24 00:16:43;;;;;;;8.88;7.97;;;;;;;13.06;94.66;99980.91;7391539;19;20357;-74
2023/10/24 00:19:10;;;;;;;9.88;7.55;;;;;;;13.05;94.73;99978.50;7391358;19;20370;-74
2023/10/24 00:21:37;;;;;;;8.43;7.53;;;;;;;13.04;94.75;99971.50;7390190;19;20352;-74
2023/10/24 00:24:04;;;;;;;11.63;7.93;;;;;;;13.02;95.03;99974.38;7388818;19;20361;-74
2023/10/24 00:26:31;;;;;;;10.40;7.78;;;;;;;13.01;95.02;99967.44;7388261;19;20364;-74
2023/10/24 00:28:58;;;;;;;9.57;8.00;;;;;;;13.02;95.05;99970.91;7394298;19;20399;-74
2023/10/24 00:31:24;;;;;;;10.73;8.05;;;;;;;13.01;95.42;99967.44;7394226;19;20335;-74
2023/10/24 00:33:51;;;;;;;10.50;8.70;;;;;;;13.01;95.24;99955.97;7392484;19;20351;-74
2023/10/24 00:36:18;;;;;;;12.45;8.68;;;;;;;13.02;95.34;99962.91;7387613;19;21107;-74
2023/10/24 00:38:45;;;;;;;9.23;8.10;;;;;;;13.00;95.45;99965.78;7392669;19;20356;-74
2023/10/24 00:41:12;;;;;;;11.45;7.88;;;;;;;13.00;95.41;99962.31;7385707;19;20324;-74
2023/10/24 00:43:39;;;;;;;9.88;8.20;;;;;;;13.00;95.77;99952.47;7393397;19;20376;-74
2023/10/24 00:46:07;;;;;;;12.60;8.40;;;;;;;12.99;95.66;99945.53;7394084;19;20750;-74
2023/10/24 00:48:34;;;;;;;9.93;7.90;;;;;;;13.00;95.58;99941.81;7390823;19;20383;-74
2023/10/24 00:51:01;;;;;;;14.52;8.57;;;;;;;12.99;95.48;99940.19;7393758;19;20382;-74
2023/10/24 00:53:28;;;;;;;9.60;8.32;;;;;;;12.98;95.81;99933.22;7387198;19;20371;-74
2023/10/24 00:55:56;;;;;;;10.18;8.20;;;;;;;12.98;95.83;99930.56;7391827;19;20411;-74
2023/10/24 00:58:23;;;;;;;12.38;7.97;;;;;;;12.98;95.95;99930.56;7387634;19;20432;-74
2023/10/24 01:00:50;;;;;;;14.38;8.88;;;;;;;12.98;96.07;99917.25;7392243;19;20336;-74
2023/10/24 01:03:17;;;;;;;10.77;9.25;;;;;;;12.94;96.17;99905.41;7391621;19;20380;-74
2023/10/24 01:05:46;;;;;;;9.73;8.10;;;;;;;12.95;96.10;99909.69;7392085;19;20860;-74
2023/10/24 01:08:13;;;;;;;8.77;7.88;;;;;;;12.94;96.20;99897.44;7389177;19;20455;-74
2023/10/24 01:10:40;;;;;;;10.98;8.00;;;;;;;12.96;96.25;99900.69;7393515;19;20351;-74
2023/10/24 01:13:08;;;;;;;11.95;8.13;;;;;;;12.97;96.15;99909.50;7389053;19;20364;-75
2023/10/24 01:15:34;;;;;;;8.35;7.55;;;;;;;12.97;96.32;99918.28;7391056;19;20344;-74
2023/10/24 01:18:03;;;;;;;11.30;7.55;;;;;;;12.96;96.33;99908.69;7391293;19;20360;-74
2023/10/24 01:20:30;;;;;;;10.20;7.60;;;;;;;12.95;96.38;99903.56;7389977;19;20372;-74
2023/10/24 01:22:56;;;;;;;11.63;7.80;;;;;;;12.96;96.26;99899.84;7388307;19;20700;-74
2023/10/24 01:25:24;;;;;;;8.93;7.77;;;;;;;12.97;96.33;99901.50;7389930;19;20388;-74
2023/10/24 01:27:55;;;;;;;9.93;7.82;;;;;;;12.96;96.50;99908.69;7387788;19;20376;-74
2023/10/24 01:30:22;;;;;;;8.50;7.35;;;;;;;12.95;96.47;99893.72;7390862;19;20848;-74
2023/10/24 01:32:48;;;;;;;11.02;7.57;;;;;;;12.95;96.46;99891.06;7391151;19;20772;-74
2023/10/24 01:35:15;;;;;;;9.15;7.60;;;;;;;12.96;96.45;99895.38;7390208;19;20353;-74
2023/10/24 01:37:42;;;;;;;7.88;6.80;;;;;;;12.95;96.53;99895.56;7386215;19;20371;-74
2023/10/24 01:40:09;;;;;;;11.50;7.50;;;;;;;12.93;96.55;99895.78;7391357;19;20356;-74
2023/10/24 01:42:37;;;;;;;7.43;6.60;;;;;;;12.93;96.60;99894.97;7389054;19;20422;-74
2023/10/24 01:45:04;;;;;;;8.07;6.45;;;;;;;12.94;96.82;99892.09;7393435;19;20419;-74
2023/10/24 01:47:31;;;;;;;7.88;6.47;;;;;;;12.97;96.77;99882.88;7386939;19;20364;-74
2023/10/24 01:49:58;;;;;;;9.05;6.63;;;;;;;12.96;96.58;99874.06;7391190;19;20872;-74
2023/10/24 01:52:25;;;;;;;9.43;6.63;;;;;;;12.98;96.60;99876.50;7387876;19;20389;-74
2023/10/24 01:54:52;;;;;;;8.82;5.55;;;;;;;12.97;96.67;99878.34;7386552;19;20372;-74
2023/10/24 01:57:19;;;;;;;9.65;6.03;;;;;;;12.93;96.66;99866.50;7388365;19;20467;-74
2023/10/24 01:59:46;;;;;;;7.80;5.60;;;;;;;12.94;96.54;99881.44;7391019;19;20526;-74
2023/10/24 02:02:13;;;;;;;7.85;5.85;;;;;;;12.94;96.67;99865.47;7387750;19;20816;-74
2023/10/24 02:04:41;;;;;;;8.18;5.80;;;;;;;12.95;96.56;99867.09;7391126;19;20421;-74
2023/10/24 02:07:09;;;;;;;8.35;5.75;;;;;;;12.97;96.68;99862.38;7394194;19;20353;-74
2023/10/24 02:09:36;;;;;;;9.63;6.20;;;;;;;12.98;96.57;99877.31;7398442;19;20417;-74
2023/10/24 02:12:03;;;;;;;7.87;5.47;;;;;;;12.97;96.58;99870.38;7395688;19;20375;-74
2023/10/24 02:14:30;;;;;;;10.25;6.00;;;;;;;12.99;96.72;99873.63;7394504;19;20368;-74
2023/10/24 02:16:57;;;;;;;9.80;6.20;;;;;;;12.99;96.73;99860.31;7391751;19;20752;-74
2023/10/24 02:19:25;;;;;;;8.25;5.70;;;;;;;12.99;96.82;99863.00;7394281;19;20337;-74
2023/10/24 02:21:52;;;;;;;8.27;5.70;;;;;;;12.99;96.63;99863.00;7394010;19;20336;-74
2023/10/24 02:24:19;;;;;;;8.10;5.70;;;;;;;12.97;96.86;99862.38;7391908;19;20340;-74
2023/10/24 02:26:46;;;;;;;9.13;6.00;;;;;;;12.97;96.88;99865.03;7397816;19;20844;-74
2023/10/24 02:29:12;;;;;;;9.38;5.97;;;;;;;12.94;96.90;99841.53;7396994;19;20358;-74
2023/10/24 02:31:40;;;;;;;7.82;5.93;;;;;;;12.93;97.13;99847.84;7396882;19;20372;-74
2023/10/24 02:34:07;;;;;;;8.20;6.05;;;;;;;12.92;97.21;99832.94;7395521;19;20373;-74
2023/10/24 02:36:34;;;;;;;8.70;6.30;;;;;;;12.92;97.34;99830.25;7395109;19;20364;-74
2023/10/24 02:39:01;;;;;;;8.40;6.70;;;;;;;12.90;97.33;99837.66;7395515;19;20848;-74
2023/10/24 02:41:27;;;;;;;9.85;6.82;;;;;;;12.87;97.50;99840.72;7394109;19;20365;-74
2023/10/24 02:43:54;;;;;;;9.98;6.63;;;;;;;12.85;97.43;99834.78;7392905;19;20416;-75
2023/10/24 02:46:21;;;;;;;10.18;6.47;;;;;;;12.85;97.52;99834.78;7397183;19;20849;-74
2023/10/24 02:48:49;;;;;;;8.55;6.10;;;;;;;12.84;97.56;99836.63;7397529;19;20580;-74
2023/10/24 02:51:15;;;;;;;8.65;6.22;;;;;;;12.84;97.77;99833.97;7396900;19;20369;-74
2023/10/24 02:53:42;;;;;;;11.17;6.70;;;;;;;12.86;97.82;99828.44;7392609;19;20395;-74
2023/10/24 02:56:09;;;;;;;8.27;6.50;;;;;;;12.85;97.65;99818.81;7396181;19;20343;-74
2023/10/24 02:58:36;;;;;;;10.43;6.80;;;;;;;12.83;97.74;99815.53;7395514;19;20332;-74
2023/10/24 03:01:04;;;;;;;12.20;7.15;;;;;;;12.80;97.65;99821.31;7396189;19;20351;-74
2023/10/24 03:03:32;;;;;;;8.68;6.60;;;;;;;12.78;97.75;99805.53;7390913;19;20344;-74
2023/10/24 03:05:59;;;;;;;9.02;6.78;;;;;;;12.74;97.74;99795.53;7396545;19;20343;-74
2023/10/24 03:08:27;;;;;;;10.07;6.95;;;;;;;12.74;97.82;99787.53;7393931;19;20868;-74
2023/10/24 03:10:53;;;;;;;12.55;6.80;;;;;;;12.71;97.54;99774.66;7394504;19;20368;-74
2023/10/24 03:13:20;;;;;;;9.37;6.97;;;;;;;12.71;97.81;99771.97;7393103;19;20358;-74
2023/10/24 03:15:47;;;;;;;9.07;6.72;;;;;;;12.69;98.03;99782.84;7394727;19;20376;-74
2023/10/24 03:18:14;;;;;;;11.40;7.05;;;;;;;12.68;97.96;99780.41;7394051;19;20364;-74
2023/10/24 03:20:41;;;;;;;9.63;7.30;;;;;;;12.67;97.80;99778.78;7396468;19;20368;-74
2023/10/24 03:23:09;;;;;;;8.45;6.93;;;;;;;12.65;97.94;99781.66;7391296;19;20376;-74
2023/10/24 03:25:40;;;;;;;10.15;6.88;;;;;;;12.60;97.99;99773.47;7393462;19;20750;-74
2023/10/24 03:28:09;;;;;;;8.77;7.18;;;;;;;12.57;98.01;99782.69;7391402;19;20352;-74
2023/10/24 03:30:36;;;;;;;10.38;7.20;;;;;;;12.54;98.04;99769.81;7392832;19;21294;-74
2023/10/24 03:33:03;;;;;;;10.07;7.22;;;;;;;12.50;98.11;99763.28;7391916;19;20348;-74
2023/10/24 03:35:32;;;;;;;10.07;7.18;;;;;;;12.48;98.11;99775.97;7397109;19;20693;-74
2023/10/24 03:38:01;;;;;;;9.55;7.47;;;;;;;12.43;98.25;99763.31;7395268;19;20336;-74
2023/10/24 03:40:28;;;;;;;9.85;7.97;;;;;;;12.37;98.51;99769.47;7394005;19;20375;-74
2023/10/24 03:42:55;;;;;;;11.77;8.20;;;;;;;12.33;98.66;99775.41;7393305;19;20906;-74
2023/10/24 03:45:22;;;;;;;10.25;7.47;;;;;;;12.29;98.71;99782.19;7393088;19;20332;-74
2023/10/24 03:47:49;;;;;;;10.77;7.95;;;;;;;12.23;98.78;99774.00;7394716;19;20424;-74
2023/10/24 03:50:16;;;;;;;10.57;7.68;;;;;;;12.21;98.76;99775.22;7392925;19;20403;-74
2023/10/24 03:52:44;;;;;;;10.75;7.95;;;;;;;12.18;98.91;99780.97;7394448;19;20435;-74
2023/10/24 03:55:11;;;;;;;9.70;8.17;;;;;;;12.15;98.95;99779.53;7394360;19;21011;-74
2023/10/24 03:57:39;;;;;;;9.63;7.60;;;;;;;12.13;98.88;99781.56;7391880;19;20333;-74
2023/10/24 04:00:09;;;;;;;11.20;7.90;;;;;;;12.13;98.64;99783.41;7390797;19;20357;-74
2023/10/24 04:02:39;;;;;;;10.35;7.85;;;;;;;12.09;98.99;99787.50;7394371;19;20423;-74
2023/10/24 04:05:06;;;;;;;11.98;8.48;;;;;;;12.07;99.03;99790.41;7390501;19;20872;-74
2023/10/24 04:07:33;;;;;;;10.45;8.32;;;;;;;12.11;99.40;99777.50;7390945;19;20360;-74
2023/10/24 04:10:00;;;;;;;9.55;8.25;;;;;;;12.13;99.36;99773.59;7390986;19;20372;-74
2023/10/24 04:12:27;;;;;;;11.50;8.60;;;;;;;12.17;99.44;99785.44;7393527;19;20825;-74
2023/10/24 04:14:55;;;;;;;10.18;7.57;;;;;;;12.21;99.51;99780.53;7393101;19;20364;-74
2023/10/24 04:17:22;;;;;;;9.85;7.93;;;;;;;12.26;99.23;99782.56;7392784;19;20399;-74
2023/10/24 04:19:49;;;;;;;10.30;8.00;;;;;;;12.29;99.08;99784.84;7393936;19;20768;-74
2023/10/24 04:22:16;;;;;;;10.35;8.20;;;;;;;12.31;99.05;99783.59;7388008;19;20797;-74
2023/10/24 04:24:43;;;;;;;10.98;8.02;;;;;;;12.34;99.08;99779.69;7388702;19;20371;-74
2023/10/24 04:27:09;;;;;;;10.07;8.25;;;;;;;12.37;98.95;99773.97;7392665;19;20329;-74
2023/10/24 04:29:36;;;;;;;11.00;7.60;;;;;;;12.38;99.06;99770.28;7393917;19;20400;-74
2023/10/24 04:32:03;;;;;;;12.13;8.13;;;;;;;12.42;98.97;99777.63;7391254;19;20439;-74
2023/10/24 04:34:31;;;;;;;12.27;8.50;;;;;;;12.43;98.79;99773.13;7390970;19;20375;-74
2023/10/24 04:36:58;;;;;;;10.77;7.85;;;;;;;12.46;98.96;99771.91;7395477;19;20343;-74
2023/10/24 04:39:25;;;;;;;11.82;7.80;;;;;;;12.47;98.98;99773.53;7392069;19;20415;-74
2023/10/24 04:41:52;;;;;;;9.50;7.80;;;;;;;12.46;98.98;99764.72;7391872;19;20365;-74
2023/10/24 04:44:19;;;;;;;11.68;7.72;;;;;;;12.48;98.92;99765.34;7392699;19;20346;-74
2023/10/24 04:46:46;;;;;;;10.90;7.57;;;;;;;12.51;98.75;99775.53;7394795;19;20447;-74
2023/10/24 04:49:15;;;;;;;8.20;6.70;;;;;;;12.52;98.54;99773.72;7393027;19;20379;-74
2023/10/24 04:51:43;;;;;;;9.73;7.45;;;;;;;12.52;98.43;99771.88;7391881;19;20375;-74
2023/10/24 04:54:10;;;;;;;8.83;7.50;;;;;;;12.53;98.44;99781.47;7390782;19;20907;-74
2023/10/24 04:56:36;;;;;;;10.77;7.38;;;;;;;12.54;98.47;99769.81;7393630;19;20380;-74
2023/10/24 04:59:03;;;;;;;10.70;7.47;;;;;;;12.57;98.40;99768.56;7394038;19;20350;-74
2023/10/24 05:01:37;;;;;;;11.02;7.50;;;;;;;12.58;98.18;99760.38;7387755;19;22311;-74
2023/10/24 05:04:05;;;;;;;12.23;7.43;;;;;;;12.59;98.18;99761.19;7391769;19;20361;-74
2023/10/24 05:06:33;;;;;;;10.85;7.40;;;;;;;12.59;98.04;99762.00;7392464;19;20379;-74
2023/10/24 05:09:00;;;;;;;11.90;8.57;;;;;;;12.59;98.03;99759.34;7390591;19;20383;-74
2023/10/24 05:11:26;;;;;;;10.65;7.63;;;;;;;12.61;97.96;99767.94;7392822;19;20360;-74
2023/10/24 05:13:53;;;;;;;11.25;7.88;;;;;;;12.60;97.99;99763.66;7390321;19;20438;-74
2023/10/24 05:16:20;;;;;;;11.00;7.75;;;;;;;12.59;97.94;99750.56;7389473;19;20398;-74
2023/10/24 05:18:47;;;;;;;9.60;7.25;;;;;;;12.59;98.10;99750.56;7393805;19;20396;-74
2023/10/24 05:21:14;;;;;;;10.38;7.43;;;;;;;12.61;97.98;99743.19;7394524;19;20898;-74
2023/10/24 05:23:41;;;;;;;9.93;7.70;;;;;;;12.59;98.12;99751.38;7388138;19;20851;-74
2023/10/24 05:26:07;;;;;;;9.93;7.50;;;;;;;12.59;98.17;99751.38;7391352;19;20365;-74
2023/10/24 05:28:34;;;;;;;10.48;7.47;;;;;;;12.61;98.14;99744.00;7389395;19;20340;-74
2023/10/24 05:31:07;;;;;;;10.20;7.50;;;;;;;12.62;98.14;99735.00;7390653;19;20346;-74
2023/10/24 05:33:35;;;;;;;10.13;7.78;;;;;;;12.65;98.12;99741.72;7392073;19;20375;-74
2023/10/24 05:36:03;;;;;;;10.27;7.60;;;;;;;12.66;98.32;99740.69;7391343;19;20372;-74
2023/10/24 05:38:29;;;;;;;10.65;7.10;;;;;;;12.70;98.24;99736.59;7391761;19;20340;-74
2023/10/24 05:40:56;;;;;;;12.07;7.28;;;;;;;12.71;97.92;99729.41;7397029;19;20394;-73
2023/10/24 05:43:23;;;;;;;8.80;7.00;;;;;;;12.72;97.85;99729.19;7398703;19;20418;-74
2023/10/24 05:45:50;;;;;;;9.60;7.57;;;;;;;12.73;97.74;99735.34;7398239;19;20390;-74
2023/10/24 05:48:18;;;;;;;9.32;7.28;;;;;;;12.73;97.69;99730.00;7395974;19;20448;-74
2023/10/24 05:50:44;;;;;;;9.77;7.28;;;;;;;12.74;97.59;99726.34;7401076;19;20695;-74
2023/10/24 05:53:11;;;;;;;10.45;7.43;;;;;;;12.74;97.40;99731.66;7399176;19;20372;-74
2023/10/24 05:55:40;;;;;;;9.70;7.22;;;;;;;12.74;97.51;99729.81;7397331;19;20352;-74
2023/10/24 05:58:06;;;;;;;13.63;7.75;;;;;;;12.75;97.54;99738.59;7399733;19;20684;-74
2023/10/24 06:00:33;;;;;;;13.15;8.05;;;;;;;12.75;97.33;99735.94;7400256;19;20679;-74
2023/10/24 06:03:00;;;;;;;10.35;6.88;;;;;;;12.74;97.25;99726.34;7397562;19;20400;-74
2023/10/24 06:05:27;;;;;;;10.83;7.03;;;;;;;12.74;97.19;99734.31;7398680;19;20492;-74
2023/10/24 06:07:54;;;;;;;9.38;6.38;;;;;;;12.71;97.23;99730.25;7394935;19;20351;-74
2023/10/24 06:10:21;;;;;;;9.00;6.63;;;;;;;12.70;97.38;99719.81;7399357;19;20438;-74
2023/10/24 06:12:48;;;;;;;10.97;6.90;;;;;;;12.69;97.29;99718.16;7396895;19;20377;-74
2023/10/24 06:15:56;;;;;;;10.18;6.50;;;;;;;12.69;97.29;99707.50;7399082;19;20414;-74
2023/10/24 06:21:54;;;;;;;7.53;6.30;;;;;;;12.71;97.65;99694.81;7398453;19;20744;-74
2023/10/24 06:24:21;;;;;;;7.43;6.40;;;;;;;12.74;97.46;99710.38;7398859;19;20340;-74
2023/10/24 06:26:47;;;;;;;8.68;6.20;;;;;;;12.76;97.43;99713.63;7332173;19;21683;-74
2023/10/24 06:29:14;;;;;;;9.00;5.88;;;;;;;12.77;97.44;99712.59;7396024;19;20424;-74
2023/10/24 06:31:41;;;;;;;8.70;5.78;;;;;;;12.76;97.29;99713.63;7388518;19;20424;-74
2023/10/24 06:34:08;;;;;;;7.30;5.47;;;;;;;12.78;97.44;99716.91;7398976;19;20791;-74
2023/10/24 06:36:35;;;;;;;9.10;5.82;;;;;;;12.81;97.66;99727.94;7395216;19;20359;-81
2023/10/24 06:39:05;;;;;;;8.07;5.40;;;;;;;12.88;97.54;99733.22;7397263;19;20364;-81
2023/10/24 06:41:33;;;;;;;8.20;5.03;;;;;;;12.93;97.41;99736.06;7398291;19;21267;-81
2023/10/24 06:44:00;;;;;;;7.40;4.70;;;;;;;12.97;96.99;99729.28;7399135;19;20385;-81
2023/10/24 06:46:27;;;;;;;9.05;5.30;;;;;;;13.02;96.97;99718.78;7399049;19;20377;-81
2023/10/24 06:48:54;;;;;;;10.02;5.07;;;;;;;13.10;96.98;99724.91;7400010;19;20875;-81
2023/10/24 06:51:22;;;;;;;7.05;4.60;;;;;;;13.13;96.58;99729.78;7395938;19;20900;-81
2023/10/24 06:53:49;;;;;;;7.03;4.18;;;;;;;13.17;96.48;99736.31;7397197;19;20364;-81
2023/10/24 06:56:15;;;;;;;7.85;4.60;;;;;;;13.23;96.21;99746.09;7395298;19;20360;-81
2023/10/24 06:58:46;;;;;;;5.03;3.60;;;;;;;13.25;95.91;99733.38;7398373;19;20328;-81
2023/10/24 07:01:13;;;;;;;8.83;5.50;;;;;;;13.29;95.81;99734.63;7394410;19;20356;-82
2023/10/24 07:03:40;;;;;;;11.02;5.90;;;;;;;13.32;95.53;99728.84;7397693;19;20357;-82
2023/10/24 07:06:10;;;;;;;5.85;4.00;;;;;;;13.34;95.33;99734.78;7397543;19;20356;-81
2023/10/24 07:08:38;;;;;;;7.65;3.90;;;;;;;13.36;95.19;99734.56;7399345;19;20360;-81
2023/10/24 07:11:05;;;;;;;7.95;3.97;;;;;;;13.38;95.08;99729.84;7399216;19;20407;-81
2023/10/24 07:13:31;;;;;;;5.75;3.80;;;;;;;13.39;94.95;99720.84;7402607;19;20345;-81
2023/10/24 07:15:58;;;;;;;6.75;3.83;;;;;;;13.41;94.86;99724.91;7398580;19;20336;-81
2023/10/24 07:18:25;;;;;;;5.63;3.40;;;;;;;13.46;94.68;99714.41;7400541;19;20374;-81
2023/10/24 07:20:57;;;;;;;7.63;4.13;;;;;;;13.50;94.79;99719.31;7395988;19;20958;-81
2023/10/24 07:23:24;;;;;;;4.90;3.65;;;;;;;13.55;94.69;99716.78;7397224;19;20370;-81
2023/10/24 07:25:56;;;;;;;5.63;3.53;;;;;;;13.60;94.48;99722.28;7399671;19;20344;-81
2023/10/24 07:28:23;;;;;;;7.55;3.67;;;;;;;13.62;94.09;99723.72;7397455;19;20771;-81
2023/10/24 07:30:51;;;;;;;6.35;3.38;;;;;;;13.66;94.11;99708.06;7399481;19;20387;-81
2023/10/24 07:33:18;;;;;;;7.22;3.17;;;;;;;13.72;94.08;99696.53;7400711;19;20356;-81
2023/10/24 07:35:48;;;;;;;4.70;3.03;;;;;;;13.78;93.87;99698.31;7396154;19;20360;-81
2023/10/24 07:38:14;;;;;;;5.82;3.00;;;;;;;13.85;93.52;99700.91;7398158;19;20377;-81
2023/10/24 07:40:41;;;;;;;6.40;2.80;;;;;;;13.90;93.18;99693.09;7397753;19;20424;-81
2023/10/24 07:43:08;;;;;;;8.38;2.90;;;;;;;13.97;93.31;99704.50;7398721;19;20387;-81
2023/10/24 07:45:35;;;;;;;6.40;2.88;;;;;;;14.07;93.05;99693.31;7397802;19;20402;-81
2023/10/24 07:48:05;;;;;;;6.70;2.40;;;;;;;14.16;92.83;99691.97;7396134;19;20440;-81
2023/10/24 07:50:33;;;;;;;6.03;2.72;;;;;;;14.30;92.76;99691.81;7397882;19;20694;-81
2023/10/24 07:52:59;;;;;;;5.93;2.75;;;;;;;14.41;92.75;99689.22;7398125;19;20361;-81
2023/10/24 07:55:27;;;;;;;29.45;22.08;;;;;;;14.53;92.31;99697.25;7394081;19;20353;-80
2023/10/24 07:57:54;;;;;;;6.65;3.40;;;;;;;14.62;91.85;99690.63;7396695;19;20385;-80
2023/10/24 08:00:21;;;;;;;5.43;2.35;;;;;;;14.68;91.28;99689.72;7392799;19;20434;-81
2023/10/24 08:02:48;;;;;;;6.22;2.90;;;;;;;14.77;90.93;99697.38;7393370;19;20364;-80
2023/10/24 08:05:15;;;;;;;5.93;2.60;;;;;;;14.85;90.37;99697.06;7396393;19;20344;-81
2023/10/24 08:07:42;;;;;;;5.43;2.58;;;;;;;14.92;89.96;99697.81;7396262;19;20357;-80
2023/10/24 08:10:09;;;;;;;6.80;2.70;;;;;;;14.98;90.04;99683.53;7397967;19;20761;-80
2023/10/24 08:12:36;;;;;;;4.97;2.42;;;;;;;15.07;89.73;99674.16;7394229;19;20374;-80
2023/10/24 08:15:03;;;;;;;5.43;2.50;;;;;;;15.16;89.56;99669.28;7397818;19;20368;-81
2023/10/24 08:17:30;;;;;;;4.38;2.20;;;;;;;15.26;89.32;99674.88;7396769;19;20368;-79
2023/10/24 08:19:58;;;;;;;4.63;2.20;;;;;;;15.33;88.91;99673.97;7397374;19;20371;-80
2023/10/24 08:22:25;;;;;;;14.63;9.65;;;;;;;15.38;88.58;99682.09;7399132;19;20886;-80
2023/10/24 08:24:51;;;;;;;7.00;2.80;;;;;;;15.41;87.69;99690.47;7397258;19;20376;-81
2023/10/24 08:27:18;;;;;;;4.70;1.95;;;;;;;15.43;87.36;99692.91;7413488;19;20377;-81
2023/10/24 08:29:45;;;;;;;5.57;2.33;;;;;;;15.46;87.80;99684.41;7420097;19;20465;-81
2023/10/24 08:32:12;;;;;;;4.93;2.10;;;;;;;15.49;86.53;99679.44;7419054;19;20455;-81
2023/10/24 08:34:42;;;;;;;5.00;2.13;;;;;;;15.52;86.36;99678.16;7397793;19;20368;-80
2023/10/24 08:37:10;;;;;;;6.43;2.00;;;;;;;15.57;86.34;99688.94;7398639;19;20336;-80
2023/10/24 08:39:37;;;;;;;5.95;2.40;;;;;;;15.58;86.42;99681.75;7390457;19;20918;-81
2023/10/24 08:42:04;;;;;;;4.82;2.03;;;;;;;15.64;86.21;99696.84;7393469;19;20788;-81
2023/10/24 08:44:31;;;;;;;4.13;2.20;;;;;;;15.64;85.81;99694.16;7395498;19;20361;-81
2023/10/24 08:47:00;;;;;;;6.97;2.45;;;;;;;15.67;86.30;99696.38;7395145;19;20344;-80
2023/10/24 08:49:27;;;;;;;5.07;2.22;;;;;;;15.70;86.11;99701.25;7395848;19;20379;-80
2023/10/24 08:51:54;;;;;;;7.50;2.90;;;;;;;15.71;85.62;99708.25;7396299;19;20375;-80
2023/10/24 08:54:22;;;;;;;4.43;2.10;;;;;;;15.69;85.16;99699.66;7397982;19;20385;-80
2023/10/24 08:56:51;;;;;;;5.88;2.80;;;;;;;15.69;85.09;99695.09;7395661;19;20352;-80
2023/10/24 08:59:20;;;;;;;7.88;2.88;;;;;;;15.76;85.53;99700.38;7397833;19;20341;-80
2023/10/24 09:01:49;;;;;;;4.28;2.60;;;;;;;15.78;85.30;99703.63;7392920;19;20343;-81
2023/10/24 09:04:17;;;;;;;5.07;2.50;;;;;;;15.80;84.90;99700.72;7396244;19;20382;-80
2023/10/24 09:06:47;;;;;;;5.43;2.00;;;;;;;15.79;84.61;99705.25;7395943;19;20350;-80
2023/10/24 09:09:15;;;;;;;6.22;2.13;;;;;;;15.81;84.61;99705.00;7394001;19;20384;-80
2023/10/24 09:12:00;;;;;;;5.70;2.15;;;;;;;15.83;84.93;99697.56;7397519;19;20747;-80
2023/10/24 09:14:28;;;;;;;4.25;2.20;;;;;;;15.88;84.88;99695.03;7397751;19;20361;-80
2023/10/24 09:17:16;;;;;;;6.30;2.45;;;;;;;15.93;84.56;99694.31;7401499;19;20860;-80
2023/10/24 09:19:44;;;;;;;5.05;2.67;;;;;;;15.98;84.63;99697.09;7403572;19;20364;-80
2023/10/24 09:22:18;;;;;;;7.70;2.90;;;;;;;16.04;85.07;99688.13;7403270;19;20367;-80
2023/10/24 09:24:49;;;;;;;6.43;2.72;;;;;;;16.12;84.58;99681.59;7399376;19;20372;-80
2023/10/24 09:27:18;;;;;;;6.90;2.40;;;;;;;16.22;84.89;99677.28;7400767;19;20360;-81
2023/10/24 09:29:49;;;;;;;5.22;2.20;;;;;;;16.30;84.47;99674.22;7399068;19;20348;-80
2023/10/24 09:32:16;;;;;;;6.82;2.20;;;;;;;16.40;84.45;99670.13;7392717;19;20399;-80
2023/10/24 09:34:47;;;;;;;5.18;2.00;;;;;;;16.45;83.46;99683.59;7391901;19;20394;-81
2023/10/24 09:37:15;;;;;;;4.70;1.80;;;;;;;16.51;83.11;99690.66;7393167;19;20472;-81
2023/10/24 09:39:59;;;;;;;5.00;2.10;;;;;;;16.52;82.41;99697.66;7390631;19;20399;-80
2023/10/24 09:42:31;;;;;;;7.20;2.10;;;;;;;16.52;82.44;99706.50;7394234;19;20365;-81
2023/10/24 09:45:06;;;;;;;5.72;2.45;;;;;;;16.51;81.93;99706.72;7392156;19;20376;-80
2023/10/24 09:47:33;;;;;;;4.35;1.90;;;;;;;16.47;81.50;99708.28;7399061;19;20368;-80
2023/10/24 09:50:02;;;;;;;4.50;1.85;;;;;;;16.44;81.72;99706.06;7396994;19;20356;-80
2023/10/24 09:52:29;;;;;;;4.75;1.85;;;;;;;16.42;81.26;99708.97;7397267;19;20360;-79
2023/10/24 09:54:58;;;;;;;5.57;1.90;;;;;;;16.28;80.92;99712.97;7398801;19;20332;-79
2023/10/24 09:57:27;;;;;;;4.97;2.03;;;;;;;16.26;81.40;99710.53;7397721;19;20359;-80
2023/10/24 09:59:58;;;;;;;6.35;1.85;;;;;;;16.21;82.08;99717.63;7402333;19;20416;-79
2023/10/24 10:02:26;;;;;;;4.25;2.00;;;;;;;16.13;81.55;99715.31;7395508;19;20364;-80
2023/10/24 10:04:54;;;;;;;5.32;1.92;;;;;;;16.05;81.95;99720.00;7393169;19;20368;-80
2023/10/24 10:07:25;;;;;;;5.00;2.05;;;;;;;16.02;81.52;99719.63;7400152;19;20379;-79
2023/10/24 10:09:53;;;;;;;6.05;1.95;;;;;;;16.01;82.64;99712.69;7394717;19;20345;-80
2023/10/24 10:12:21;;;;;;;5.20;2.22;;;;;;;15.99;82.05;99698.72;7399749;19;20383;-80
2023/10/24 10:15:09;;;;;;;5.80;2.00;;;;;;;16.01;82.28;99696.63;7401883;19;20371;-80
2023/10/24 10:18:22;;;;;;;5.28;2.03;;;;;;;16.03;82.33;99700.69;7397673;19;20377;-80
2023/10/24 10:21:05;;;;;;;6.65;2.13;;;;;;;16.02;82.25;99687.53;7393309;19;20360;-80
2023/10/24 10:23:42;;;;;;;6.85;2.17;;;;;;;15.96;81.94;99683.97;7396685;19;20927;-80
2023/10/24 10:26:57;;;;;;;5.70;2.42;;;;;;;15.90;81.77;99675.00;7397946;19;20356;-80
2023/10/24 10:29:53;;;;;;;4.20;1.92;;;;;;;15.86;82.73;99659.66;7393885;19;20803;-80
2023/10/24 10:33:09;;;;;;;4.07;1.92;;;;;;;15.86;83.01;99652.44;7397666;19;20360;-80
2023/10/24 10:35:49;;;;;;;4.05;2.03;;;;;;;15.90;83.14;99642.91;7397570;19;20716;-81
2023/10/24 10:38:38;;;;;;;4.30;2.30;;;;;;;15.86;82.68;99647.09;7399848;19;20868;-80
2023/10/24 10:41:23;;;;;;;4.60;1.90;;;;;;;15.89;82.95;99646.63;7392157;19;20372;-79
2023/10/24 10:43:53;;;;;;;6.75;2.30;;;;;;;15.88;82.82;99653.03;7399012;19;20916;-80
2023/10/24 10:46:25;;;;;;;3.30;2.00;;;;;;;15.94;83.06;99639.75;7397698;19;20336;-80
2023/10/24 10:48:59;;;;;;;5.00;2.05;;;;;;;15.96;82.62;99645.69;7395657;19;20729;-80
2023/10/24 10:51:30;;;;;;;5.95;2.67;;;;;;;16.00;82.98;99653.03;7397239;19;20388;-79
2023/10/24 10:53:57;;;;;;;5.93;2.50;;;;;;;16.04;82.54;99645.31;7398367;19;20365;-79
2023/10/24 10:56:35;;;;;;;4.82;2.25;;;;;;;16.09;83.00;99656.94;7398605;19;20356;-80
2023/10/24 10:59:08;;;;;;;5.70;2.30;;;;;;;16.16;82.73;99643.44;7400389;19;20356;-79
2023/10/24 11:01:55;;;;;;;5.15;2.10;;;;;;;16.18;82.84;99649.34;7393761;19;20352;-79
2023/10/24 11:04:22;;;;;;;5.00;2.35;;;;;;;16.21;82.50;99643.50;7397759;19;20341;-80
2023/10/24 11:06:57;;;;;;;5.63;2.20;;;;;;;16.20;82.51;99641.91;7394822;19;20857;-80
2023/10/24 11:09:35;;;;;;;4.43;2.10;;;;;;;16.20;82.55;99633.88;7401025;19;20370;-80
2023/10/24 11:12:20;;;;;;;4.13;2.40;;;;;;;16.19;82.28;99640.25;7398990;19;20356;-80
2023/10/24 11:15:16;;;;;;;5.72;2.15;;;;;;;16.19;81.57;99640.25;7399478;19;20344;-80
2023/10/24 11:17:43;;;;;;;4.63;1.80;;;;;;;16.11;81.30;99648.69;7399778;19;20348;-79
2023/10/24 11:20:10;;;;;;;6.65;2.10;;;;;;;16.08;81.62;99646.47;7398948;19;20388;-79
2023/10/24 11:22:40;;;;;;;3.45;1.70;;;;;;;16.07;82.12;99637.66;7400335;19;20352;-80
2023/10/24 11:25:11;;;;;;;3.72;1.75;;;;;;;16.08;82.14;99638.44;7399835;19;20372;-80
2023/10/24 11:27:39;;;;;;;3.97;1.77;;;;;;;16.07;82.30;99639.50;7407598;19;20368;-79
2023/10/24 11:30:06;;;;;;;3.00;1.65;;;;;;;16.04;82.03;99631.94;7404083;19;20360;-80
2023/10/24 11:32:34;;;;;;;4.15;1.85;;;;;;;15.99;82.25;99629.97;7396598;19;20359;-80
2023/10/24 11:35:05;;;;;;;4.57;1.80;;;;;;;15.98;82.27;99623.03;7397339;19;20371;-79
2023/10/24 11:37:32;;;;;;;3.67;1.63;;;;;;;15.97;81.99;99621.38;7387896;19;20402;-79
2023/10/24 11:39:59;;;;;;;3.83;1.67;;;;;;;15.96;82.17;99613.59;7391855;19;20831;-79
2023/10/24 11:42:27;;;;;;;3.33;1.77;;;;;;;15.96;81.96;99618.94;7392171;19;20859;-79
2023/10/24 11:44:54;;;;;;;4.18;1.90;;;;;;;15.94;81.77;99611.16;7395613;19;20914;-79